createdAt,value
2023-08-15T00:01:20.151Z,25.52
2023-08-15T00:03:52.055Z,25.48
2023-08-15T00:06:22.725Z,25.39
2023-08-15T00:08:55.484Z,25.33
2023-08-15T00:11:26.711Z,25.33
2023-08-15T00:13:58.033Z,25.32
2023-08-15T00:16:31.463Z,25.30
2023-08-15T00:19:12.216Z,25.25
2023-08-15T00:21:42.920Z,25.22
2023-08-15T00:24:13.990Z,25.19
2023-08-15T00:26:44.611Z,25.17
2023-08-15T00:29:15.175Z,25.17
2023-08-15T00:31:48.326Z,25.17
2023-08-15T00:34:18.934Z,25.14
2023-08-15T00:36:49.616Z,25.01
2023-08-15T00:39:20.172Z,24.89
2023-08-15T00:41:50.545Z,24.78
2023-08-15T00:44:21.229Z,24.69
2023-08-15T00:46:54.537Z,24.61
2023-08-15T00:49:25.780Z,24.52
2023-08-15T00:51:57.546Z,24.43
2023-08-15T00:54:29.950Z,24.41
2023-08-15T00:57:01.512Z,24.34
2023-08-15T00:59:33.461Z,24.29
2023-08-15T01:02:09.025Z,24.25
2023-08-15T01:04:42.152Z,24.28
2023-08-15T01:07:14.500Z,24.17
2023-08-15T01:09:48.116Z,24.16
2023-08-15T01:12:29.308Z,24.13
2023-08-15T01:15:05.452Z,24.13
2023-08-15T01:17:47.269Z,24.07
2023-08-15T01:20:24.990Z,24.04
2023-08-15T01:22:57.716Z,24.07
2023-08-15T01:25:31.102Z,24.13
2023-08-15T01:28:02.940Z,24.15
2023-08-15T01:30:33.923Z,24.22
2023-08-15T01:33:13.823Z,24.28
2023-08-15T01:35:50.957Z,24.38
2023-08-15T01:38:35.785Z,24.36
2023-08-15T01:41:11.930Z,24.34
2023-08-15T01:43:44.165Z,24.33
2023-08-15T01:46:15.982Z,24.28
2023-08-15T01:48:47.428Z,24.16
2023-08-15T01:51:18.209Z,24.15
2023-08-15T01:53:49.135Z,24.17
2023-08-15T01:56:22.551Z,24.25
2023-08-15T01:58:53.287Z,24.19
2023-08-15T02:01:24.038Z,24.17
2023-08-15T02:03:54.692Z,24.22
2023-08-15T02:06:25.501Z,24.28
2023-08-15T02:08:56.112Z,24.26
2023-08-15T02:11:30.263Z,24.23
2023-08-15T02:14:02.220Z,24.23
2023-08-15T02:16:32.835Z,24.31
2023-08-15T02:19:04.014Z,24.24
2023-08-15T02:21:34.728Z,24.23
2023-08-15T02:24:05.836Z,24.19
2023-08-15T02:26:39.080Z,24.21
2023-08-15T02:29:09.652Z,24.19
2023-08-15T02:31:46.730Z,24.24
2023-08-15T02:34:17.310Z,24.28
2023-08-15T02:36:51.369Z,24.33
2023-08-15T02:39:23.219Z,24.37
2023-08-15T02:41:56.633Z,24.38
2023-08-15T02:44:27.350Z,24.42
2023-08-15T02:46:58.167Z,24.41
2023-08-15T02:49:29.199Z,24.44
2023-08-15T02:52:00.762Z,24.44
2023-08-15T02:54:31.408Z,24.48
2023-08-15T02:57:04.726Z,24.49
2023-08-15T02:59:35.300Z,24.53
2023-08-15T03:02:06.040Z,24.43
2023-08-15T03:04:36.711Z,24.32
2023-08-15T03:07:07.422Z,24.24
2023-08-15T03:09:38.028Z,24.24
2023-08-15T03:12:12.085Z,24.30
2023-08-15T03:14:42.735Z,24.24
2023-08-15T03:17:15.272Z,24.12
2023-08-15T03:19:46.040Z,24.09
2023-08-15T03:22:17.141Z,24.12
2023-08-15T03:24:48.379Z,24.04
2023-08-15T03:27:21.977Z,24.00
2023-08-15T03:29:52.642Z,23.93
2023-08-15T03:32:23.338Z,23.82
2023-08-15T03:34:54.010Z,23.79
2023-08-15T03:37:24.428Z,23.76
2023-08-15T03:39:55.531Z,23.79
2023-08-15T03:42:28.854Z,23.85
2023-08-15T03:44:59.480Z,23.87
2023-08-15T03:47:30.296Z,23.87
2023-08-15T03:50:01.216Z,23.90
2023-08-15T03:52:34.211Z,23.91
2023-08-15T03:55:05.006Z,23.89
2023-08-15T03:57:39.474Z,23.89
2023-08-15T04:00:14.682Z,23.91
2023-08-15T04:02:45.226Z,23.90
2023-08-15T04:05:17.223Z,23.92
2023-08-15T04:07:48.114Z,23.92
2023-08-15T04:10:18.802Z,24.01
2023-08-15T04:12:54.338Z,23.90
2023-08-15T04:15:25.050Z,23.84
2023-08-15T04:17:57.081Z,23.86
2023-08-15T04:20:27.756Z,23.91
2023-08-15T04:22:58.046Z,23.94
2023-08-15T04:25:31.875Z,23.94
2023-08-15T04:28:05.613Z,23.96
2023-08-15T04:30:38.147Z,23.97
2023-08-15T04:33:09.411Z,24.04
2023-08-15T04:35:41.082Z,24.09
2023-08-15T04:38:13.999Z,24.15
2023-08-15T04:40:45.287Z,24.26
2023-08-15T04:43:19.374Z,24.36
2023-08-15T04:45:50.273Z,24.45
2023-08-15T04:48:20.856Z,24.51
2023-08-15T04:50:51.093Z,24.59
2023-08-15T04:53:21.732Z,24.67
2023-08-15T04:55:52.351Z,24.69
2023-08-15T04:58:25.241Z,24.75
2023-08-15T05:00:55.888Z,24.73
2023-08-15T05:03:26.630Z,24.84
2023-08-15T05:05:57.246Z,24.95
2023-08-15T05:08:28.090Z,25.03
2023-08-15T05:10:58.787Z,25.03
2023-08-15T05:13:31.981Z,25.04
2023-08-15T05:16:02.664Z,25.05
2023-08-15T05:18:33.673Z,25.09
2023-08-15T05:21:04.297Z,25.18
2023-08-15T05:23:35.710Z,25.26
2023-08-15T05:26:07.593Z,25.31
2023-08-15T05:28:40.806Z,25.42
2023-08-15T05:31:11.383Z,25.47
2023-08-15T05:33:42.232Z,25.54
2023-08-15T05:36:13.075Z,25.57
2023-08-15T05:38:43.824Z,25.61
2023-08-15T05:41:14.689Z,25.71
2023-08-15T05:43:48.541Z,25.78
2023-08-15T05:46:19.710Z,25.86
2023-08-15T05:48:50.871Z,25.99
2023-08-15T05:51:21.999Z,26.06
2023-08-15T05:53:52.795Z,26.11
2023-08-15T05:56:23.531Z,26.22
2023-08-15T05:58:56.945Z,26.39
2023-08-15T06:01:27.939Z,26.52
2023-08-15T06:03:59.550Z,26.60
2023-08-15T06:06:30.353Z,26.71
2023-08-15T06:09:01.504Z,26.81
2023-08-15T06:11:32.405Z,26.95
2023-08-15T06:14:06.664Z,27.09
2023-08-15T06:16:37.426Z,27.22
2023-08-15T06:19:09.060Z,27.38
2023-08-15T06:21:43.125Z,27.54
2023-08-15T06:24:16.781Z,27.72
2023-08-15T06:26:47.904Z,27.88
2023-08-15T06:29:21.552Z,28.05
2023-08-15T06:31:52.405Z,28.15
2023-08-15T06:34:23.489Z,28.28
2023-08-15T06:36:54.778Z,28.42
2023-08-15T06:39:25.789Z,28.53
2023-08-15T06:41:56.919Z,28.62
2023-08-15T06:44:30.081Z,28.71
2023-08-15T06:47:00.666Z,28.83
2023-08-15T06:49:31.215Z,28.91
2023-08-15T06:52:01.760Z,28.98
2023-08-15T06:54:32.420Z,29.00
2023-08-15T06:57:03.717Z,29.08
2023-08-15T06:59:37.122Z,29.30
2023-08-15T07:02:12.006Z,29.47
2023-08-15T07:04:43.126Z,29.66
2023-08-15T07:07:13.658Z,29.85
2023-08-15T07:09:45.391Z,29.95
2023-08-15T07:12:19.770Z,30.19
2023-08-15T07:14:53.597Z,30.41
2023-08-15T07:17:24.264Z,30.64
2023-08-15T07:19:54.859Z,30.83
2023-08-15T07:22:25.414Z,30.98
2023-08-15T07:24:56.180Z,31.19
2023-08-15T07:27:26.786Z,31.37
2023-08-15T07:30:00.267Z,31.58
2023-08-15T07:32:32.390Z,31.77
2023-08-15T07:35:02.871Z,31.87
2023-08-15T07:37:34.016Z,31.96
2023-08-15T07:40:09.426Z,32.00
2023-08-15T07:42:40.533Z,32.15
2023-08-15T07:45:14.459Z,32.37
2023-08-15T07:47:46.404Z,32.57
2023-08-15T07:50:19.602Z,32.73
2023-08-15T07:52:50.348Z,32.62
2023-08-15T07:55:21.220Z,32.75
2023-08-15T07:57:51.966Z,32.51
2023-08-15T08:00:25.242Z,32.46
2023-08-15T08:02:56.294Z,32.69
2023-08-15T08:05:26.864Z,33.16
2023-08-15T08:07:57.402Z,33.17
2023-08-15T08:10:28.203Z,33.14
2023-08-15T08:13:00.989Z,33.35
2023-08-15T08:15:34.509Z,33.88
2023-08-15T08:18:05.307Z,34.47
2023-08-15T08:20:36.071Z,35.24
2023-08-15T08:23:06.776Z,35.92
2023-08-15T08:25:37.410Z,36.59
2023-08-15T08:28:09.165Z,37.39
2023-08-15T08:30:42.333Z,38.08
2023-08-15T08:33:14.401Z,38.88
2023-08-15T08:35:45.126Z,39.55
2023-08-15T08:38:15.745Z,40.10
2023-08-15T08:40:46.718Z,40.74
2023-08-15T08:43:19.526Z,41.16
2023-08-15T08:45:53.388Z,41.65
2023-08-15T08:48:26.018Z,41.74
2023-08-15T08:50:58.991Z,41.86
2023-08-15T08:53:29.730Z,40.91
2023-08-15T08:56:00.945Z,40.80
2023-08-15T08:58:34.272Z,41.80
2023-08-15T09:01:07.596Z,42.14
2023-08-15T09:03:38.789Z,42.33
2023-08-15T09:06:09.905Z,42.39
2023-08-15T09:08:40.479Z,42.07
2023-08-15T09:11:11.395Z,41.96
2023-08-15T09:13:51.080Z,42.27
2023-08-15T09:16:24.335Z,42.26
2023-08-15T09:18:54.901Z,41.94
2023-08-15T09:21:25.461Z,41.98
2023-08-15T09:23:56.863Z,42.11
2023-08-15T09:26:28.824Z,41.87
2023-08-15T09:29:01.876Z,42.31
2023-08-15T09:31:36.001Z,41.93
2023-08-15T09:34:13.903Z,41.64
2023-08-15T09:36:45.475Z,41.88
2023-08-15T09:39:19.404Z,42.09
2023-08-15T09:41:50.987Z,42.14
2023-08-15T09:44:35.895Z,42.12
2023-08-15T09:47:10.982Z,42.09
2023-08-15T09:49:42.754Z,42.13
2023-08-15T09:52:15.138Z,42.47
2023-08-15T09:54:47.981Z,42.53
2023-08-15T09:57:19.099Z,42.68
2023-08-15T09:59:49.908Z,42.53
2023-08-15T10:02:27.777Z,42.51
2023-08-15T10:05:07.751Z,42.66
2023-08-15T10:07:39.645Z,42.75
2023-08-15T10:10:13.407Z,42.30
2023-08-15T10:12:46.188Z,42.12
2023-08-15T10:15:17.448Z,42.15
2023-08-15T10:17:51.079Z,41.63
2023-08-15T10:20:23.880Z,40.99
2023-08-15T10:22:57.428Z,41.27
2023-08-15T10:25:39.736Z,40.65
2023-08-15T10:28:14.090Z,39.69
2023-08-15T10:30:52.187Z,39.56
2023-08-15T10:33:28.521Z,39.62
2023-08-15T10:36:11.999Z,40.65
2023-08-15T10:38:45.471Z,41.27
2023-08-15T10:41:19.076Z,40.69
2023-08-15T10:43:52.268Z,39.46
2023-08-15T10:46:29.730Z,39.88
2023-08-15T10:49:05.045Z,39.61
2023-08-15T10:51:38.006Z,39.62
2023-08-15T10:54:12.097Z,40.30
2023-08-15T10:56:44.861Z,40.38
2023-08-15T10:59:17.526Z,40.81
2023-08-15T11:01:50.686Z,41.80
2023-08-15T11:04:28.727Z,42.35
2023-08-15T11:06:59.281Z,42.72
2023-08-15T11:09:32.986Z,42.42
2023-08-15T11:12:10.202Z,41.57
2023-08-15T11:14:40.840Z,40.83
2023-08-15T11:17:14.696Z,40.26
2023-08-15T11:19:48.819Z,39.76
2023-08-15T11:22:20.968Z,39.30
2023-08-15T11:24:54.622Z,38.86
2023-08-15T11:27:25.221Z,38.27
2023-08-15T11:30:01.094Z,37.78
2023-08-15T11:32:32.010Z,37.37
2023-08-15T11:35:07.086Z,37.03
2023-08-15T11:37:38.906Z,36.69
2023-08-15T11:40:11.574Z,36.49
2023-08-15T11:42:42.581Z,36.28
2023-08-15T11:45:21.858Z,36.08
2023-08-15T11:48:04.668Z,35.77
2023-08-15T11:50:44.656Z,35.52
2023-08-15T11:53:19.656Z,35.52
2023-08-15T11:55:51.883Z,35.75
2023-08-15T11:58:27.802Z,36.17
2023-08-15T12:01:00.244Z,36.49
2023-08-15T12:03:31.390Z,37.05
2023-08-15T12:06:06.535Z,37.22
2023-08-15T12:08:37.431Z,37.22
2023-08-15T12:11:11.813Z,37.17
2023-08-15T12:13:43.842Z,36.83
2023-08-15T12:16:14.666Z,36.31
2023-08-15T12:18:45.242Z,35.75
2023-08-15T12:21:18.423Z,35.24
2023-08-15T12:23:49.089Z,34.90
2023-08-15T12:26:19.690Z,34.71
2023-08-15T12:28:50.217Z,34.59
2023-08-15T12:31:21.353Z,34.55
2023-08-15T12:33:52.053Z,34.73
2023-08-15T12:36:25.229Z,35.47
2023-08-15T12:38:55.904Z,35.26
2023-08-15T12:41:26.493Z,35.65
2023-08-15T12:43:57.247Z,36.51
2023-08-15T12:46:28.351Z,37.37
2023-08-15T12:49:03.497Z,36.88
2023-08-15T12:51:37.053Z,37.23
2023-08-15T12:54:08.355Z,37.33
2023-08-15T12:56:38.912Z,37.88
2023-08-15T12:59:09.708Z,37.38
2023-08-15T13:01:41.298Z,38.10
2023-08-15T13:04:14.088Z,39.90
2023-08-15T13:06:47.568Z,41.21
2023-08-15T13:09:18.475Z,41.95
2023-08-15T13:11:49.133Z,42.76
2023-08-15T13:14:22.691Z,43.44
2023-08-15T13:16:58.695Z,44.06
2023-08-15T13:19:29.225Z,44.66
2023-08-15T13:22:02.543Z,44.78
2023-08-15T13:24:33.154Z,45.23
2023-08-15T13:27:03.686Z,45.67
2023-08-15T13:29:34.518Z,45.98
2023-08-15T13:32:05.264Z,46.18
2023-08-15T13:34:35.958Z,44.62
2023-08-15T13:37:09.180Z,43.04
2023-08-15T13:39:39.742Z,41.77
2023-08-15T13:42:16.971Z,40.60
2023-08-15T13:44:54.074Z,39.40
2023-08-15T13:47:24.951Z,38.57
2023-08-15T13:49:55.669Z,37.85
2023-08-15T13:52:31.639Z,37.25
2023-08-15T13:55:02.181Z,36.67
2023-08-15T13:57:34.019Z,36.22
2023-08-15T14:00:05.473Z,35.81
2023-08-15T14:02:37.198Z,35.44
2023-08-15T14:05:09.188Z,35.02
2023-08-15T14:07:42.439Z,34.68
2023-08-15T14:10:14.820Z,34.36
2023-08-15T14:12:45.351Z,34.07
2023-08-15T14:15:16.261Z,33.76
2023-08-15T14:17:46.797Z,33.52
2023-08-15T14:20:17.422Z,33.28
2023-08-15T14:22:50.685Z,33.03
2023-08-15T14:25:21.467Z,32.87
2023-08-15T14:27:52.049Z,32.70
2023-08-15T14:30:22.835Z,32.52
2023-08-15T14:32:53.659Z,32.38
2023-08-15T14:35:25.802Z,32.20
2023-08-15T14:37:58.924Z,32.09
2023-08-15T14:40:29.507Z,31.95
2023-08-15T14:43:00.042Z,31.85
2023-08-15T14:45:30.629Z,31.78
2023-08-15T14:48:03.304Z,31.62
2023-08-15T14:50:36.149Z,31.47
2023-08-15T14:53:09.462Z,31.32
2023-08-15T14:55:40.047Z,31.23
2023-08-15T14:58:11.125Z,31.11
2023-08-15T15:00:41.752Z,30.74
2023-08-15T15:03:12.798Z,29.99
2023-08-15T15:05:43.459Z,29.27
2023-08-15T15:08:16.709Z,28.83
2023-08-15T15:10:47.273Z,28.49
2023-08-15T15:13:17.817Z,28.33
2023-08-15T15:15:54.251Z,27.81
2023-08-15T15:18:25.792Z,27.73
2023-08-15T15:20:57.876Z,27.86
2023-08-15T15:23:32.445Z,28.01
2023-08-15T15:26:03.007Z,27.84
2023-08-15T15:28:33.651Z,27.61
2023-08-15T15:31:04.275Z,27.34
2023-08-15T15:33:34.784Z,27.24
2023-08-15T15:36:05.332Z,27.31
2023-08-15T15:38:38.561Z,27.48
2023-08-15T15:41:09.189Z,27.51
2023-08-15T15:43:39.769Z,27.54
2023-08-15T15:46:10.507Z,27.45
2023-08-15T15:48:41.245Z,27.35
2023-08-15T15:51:12.131Z,27.29
2023-08-15T15:53:45.343Z,27.21
2023-08-15T15:56:15.902Z,27.15
2023-08-15T15:58:46.497Z,27.09
2023-08-15T16:01:17.206Z,27.07
2023-08-15T16:03:48.168Z,27.21
2023-08-15T16:06:21.800Z,26.80
2023-08-15T16:08:55.053Z,26.33
2023-08-15T16:11:25.752Z,26.08
2023-08-15T16:13:56.631Z,26.07
2023-08-15T16:16:27.304Z,26.22
2023-08-15T16:18:58.628Z,26.54
2023-08-15T16:21:29.953Z,26.61
2023-08-15T16:24:03.191Z,26.62
2023-08-15T16:26:34.593Z,26.60
2023-08-15T16:29:07.065Z,26.77
2023-08-15T16:31:37.745Z,26.71
2023-08-15T16:34:09.457Z,26.73
2023-08-15T16:36:40.074Z,26.78
2023-08-15T16:39:13.243Z,26.88
2023-08-15T16:41:44.253Z,27.04
2023-08-15T16:44:14.824Z,27.18
2023-08-15T16:46:45.466Z,27.28
2023-08-15T16:49:16.133Z,27.14
2023-08-15T16:51:46.717Z,26.70
2023-08-15T16:54:23.023Z,26.76
2023-08-15T16:56:54.014Z,26.93
2023-08-15T16:59:24.610Z,27.09
2023-08-15T17:01:55.205Z,27.10
2023-08-15T17:04:25.777Z,27.10
2023-08-15T17:06:56.553Z,27.16
2023-08-15T17:09:31.225Z,26.95
2023-08-15T17:12:02.008Z,26.90
2023-08-15T17:14:32.990Z,26.88
2023-08-15T17:17:03.859Z,27.03
2023-08-15T17:19:34.606Z,26.93
2023-08-15T17:22:05.168Z,26.82
2023-08-15T17:24:38.546Z,26.93
2023-08-15T17:27:09.353Z,27.01
2023-08-15T17:29:40.009Z,27.06
2023-08-15T17:32:10.956Z,27.09
2023-08-15T17:34:41.587Z,26.91
2023-08-15T17:37:12.480Z,26.75
2023-08-15T17:39:45.839Z,26.52
2023-08-15T17:42:16.697Z,26.36
2023-08-15T17:44:47.891Z,26.44
2023-08-15T17:47:18.392Z,26.42
2023-08-15T17:49:48.935Z,26.40
2023-08-15T17:52:19.692Z,26.24
2023-08-15T17:54:53.130Z,26.21
2023-08-15T17:57:23.808Z,26.34
2023-08-15T17:59:54.458Z,26.35
2023-08-15T18:02:25.720Z,26.34
2023-08-15T18:04:56.646Z,26.37
2023-08-15T18:07:27.530Z,26.41
2023-08-15T18:10:01.206Z,26.35
2023-08-15T18:12:31.957Z,26.33
2023-08-15T18:15:02.559Z,26.20
2023-08-15T18:17:33.206Z,26.08
2023-08-15T18:20:03.971Z,26.02
2023-08-15T18:22:34.545Z,25.99
2023-08-15T18:25:08.794Z,26.10
2023-08-15T18:27:39.416Z,26.10
2023-08-15T18:30:12.262Z,26.06
2023-08-15T18:32:43.215Z,26.13
2023-08-15T18:35:14.012Z,26.11
2023-08-15T18:37:46.553Z,26.15
2023-08-15T18:40:21.167Z,26.07
2023-08-15T18:42:51.689Z,25.97
2023-08-15T18:45:22.484Z,25.95
2023-08-15T18:47:53.221Z,25.98
2023-08-15T18:50:24.128Z,25.86
2023-08-15T18:52:55.254Z,25.68
2023-08-15T18:55:28.523Z,25.63
2023-08-15T18:57:59.178Z,25.42
2023-08-15T19:00:29.855Z,25.43
2023-08-15T19:03:00.491Z,25.55
2023-08-15T19:05:31.399Z,25.64
2023-08-15T19:08:02.745Z,25.60
2023-08-15T19:10:36.162Z,25.71
2023-08-15T19:13:06.840Z,25.68
2023-08-15T19:15:37.634Z,25.74
2023-08-15T19:18:09.446Z,25.78
2023-08-15T19:20:40.795Z,25.69
2023-08-15T19:23:11.288Z,25.32
2023-08-15T19:25:44.481Z,25.13
2023-08-15T19:28:16.698Z,25.26
2023-08-15T19:30:47.363Z,25.15
2023-08-15T19:33:20.903Z,24.88
2023-08-15T19:35:51.531Z,24.88
2023-08-15T19:38:22.177Z,24.83
2023-08-15T19:40:55.453Z,24.85
2023-08-15T19:43:26.165Z,24.93
2023-08-15T19:45:56.865Z,25.01
2023-08-15T19:48:28.328Z,25.09
2023-08-15T19:50:58.890Z,25.18
2023-08-15T19:53:29.422Z,25.26
2023-08-15T19:56:02.411Z,25.34
2023-08-15T19:58:33.071Z,25.41
2023-08-15T20:01:03.696Z,25.44
2023-08-15T20:03:34.298Z,25.49
2023-08-15T20:06:04.805Z,25.53
2023-08-15T20:08:35.067Z,25.46
2023-08-15T20:11:08.315Z,25.45
2023-08-15T20:13:38.848Z,25.47
2023-08-15T20:16:09.442Z,25.52
2023-08-15T20:18:40.054Z,25.47
2023-08-15T20:21:10.628Z,25.42
2023-08-15T20:23:41.166Z,25.42
2023-08-15T20:26:14.394Z,25.44
2023-08-15T20:28:44.919Z,25.40
2023-08-15T20:31:15.694Z,25.37
2023-08-15T20:33:46.335Z,25.37
2023-08-15T20:36:16.780Z,25.33
2023-08-15T20:38:47.315Z,25.15
2023-08-15T20:41:20.434Z,25.15
2023-08-15T20:43:51.161Z,25.18
2023-08-15T20:46:21.788Z,25.18
2023-08-15T20:48:52.371Z,25.19
2023-08-15T20:51:22.865Z,25.15
2023-08-15T20:53:53.112Z,25.07
2023-08-15T20:56:27.549Z,25.00
2023-08-15T20:58:58.578Z,24.96
2023-08-15T21:01:29.289Z,24.99
2023-08-15T21:03:59.921Z,25.08
2023-08-15T21:06:30.635Z,25.07
2023-08-15T21:09:01.177Z,25.10
2023-08-15T21:11:34.401Z,25.14
2023-08-15T21:14:04.924Z,25.16
2023-08-15T21:16:35.216Z,25.08
2023-08-15T21:19:05.789Z,25.09
2023-08-15T21:21:36.315Z,25.08
2023-08-15T21:24:07.897Z,25.11
2023-08-15T21:26:41.176Z,25.12
2023-08-15T21:29:12.217Z,25.14
2023-08-15T21:31:44.837Z,24.97
2023-08-15T21:34:15.505Z,24.77
2023-08-15T21:36:46.097Z,24.74
2023-08-15T21:39:16.783Z,24.81
2023-08-15T21:41:49.945Z,24.84
2023-08-15T21:44:20.659Z,24.70
2023-08-15T21:46:51.356Z,24.73
2023-08-15T21:49:21.978Z,24.77
2023-08-15T21:51:52.581Z,24.76
2023-08-15T21:54:23.156Z,24.74
2023-08-15T21:56:56.564Z,24.76
2023-08-15T21:59:27.179Z,24.80
2023-08-15T22:01:57.777Z,24.70
2023-08-15T22:04:28.316Z,24.64
2023-08-15T22:06:58.843Z,24.67
2023-08-15T22:09:29.019Z,24.71
2023-08-15T22:12:02.245Z,24.77
2023-08-15T22:14:32.782Z,24.51
2023-08-15T22:17:03.030Z,24.51
2023-08-15T22:19:33.649Z,24.33
2023-08-15T22:22:04.870Z,24.21
2023-08-15T22:24:35.414Z,24.28
2023-08-15T22:27:08.259Z,24.21
2023-08-15T22:29:38.903Z,24.23
2023-08-15T22:32:09.881Z,24.32
2023-08-15T22:34:40.618Z,24.34
2023-08-15T22:37:10.828Z,24.42
2023-08-15T22:39:41.423Z,24.47
2023-08-15T22:42:14.539Z,24.51
2023-08-15T22:44:45.149Z,24.60
2023-08-15T22:47:15.694Z,24.62
2023-08-15T22:49:45.896Z,24.62
2023-08-15T22:52:16.475Z,24.60
2023-08-15T22:54:46.999Z,24.65
2023-08-15T22:57:19.817Z,24.66
2023-08-15T22:59:50.513Z,24.65
2023-08-15T23:02:21.026Z,24.68
2023-08-15T23:04:54.341Z,24.68
2023-08-15T23:07:25.232Z,24.66
2023-08-15T23:09:56.123Z,24.62
2023-08-15T23:12:29.296Z,24.54
2023-08-15T23:15:00.147Z,24.51
2023-08-15T23:17:30.716Z,24.33
2023-08-15T23:20:01.334Z,24.24
2023-08-15T23:22:32.080Z,24.31
2023-08-15T23:25:04.076Z,24.40
2023-08-15T23:27:37.350Z,24.43
2023-08-15T23:30:09.951Z,24.51
2023-08-15T23:32:40.455Z,24.43
2023-08-15T23:35:14.478Z,24.29
2023-08-15T23:37:46.611Z,24.34
2023-08-15T23:40:17.476Z,24.34
2023-08-15T23:42:50.743Z,24.32
2023-08-15T23:45:21.437Z,24.28
2023-08-15T23:47:52.120Z,24.35
2023-08-15T23:50:22.983Z,24.41
2023-08-15T23:52:53.501Z,24.47
2023-08-15T23:55:23.688Z,24.49
2023-08-15T23:57:57.025Z,24.43
